Dryden, Canada
Current Conditions -  °F | °C
As of 8:01 PM on Sunday 25 Jan 2015 (Local Time) from CYHD Reporting Station
Overcast Overcast  
Wind Chill:   Ceiling: 3500
Heat Index: 12°   Visibility: 9mi
Dew Point:   Wind: 9mph
Humidity: 85%   Direction: 200°SSW
Pressure: 29.83"   Gusts: NA
Location:  49.78°N, 92.84°W
Report Text: CYHD 260201Z AUTO 20008KT 9SM SCT015 OVC035 M11/M13 A2983 RMK SLP142
Loading
Personal Weather Stations






























Interactive Weather Map New forecast layout! Learn more

10-Day Weather Forecast

Advertisements
Track Severe Weather on mobile